createdAt,value
2023-05-08T00:01:00.472Z,90.12
2023-05-08T00:03:27.331Z,90.15
2023-05-08T00:05:55.493Z,90.16
2023-05-08T00:08:22.046Z,90.19
2023-05-08T00:10:48.754Z,90.51
2023-05-08T00:13:15.351Z,90.25
2023-05-08T00:15:41.968Z,89.71
2023-05-08T00:18:08.478Z,89.94
2023-05-08T00:20:34.826Z,89.88
2023-05-08T00:23:01.243Z,89.57
2023-05-08T00:25:27.780Z,89.73
2023-05-08T00:27:55.289Z,89.48
2023-05-08T00:30:22.205Z,89.58
2023-05-08T00:32:48.605Z,89.50
2023-05-08T00:35:14.997Z,89.67
2023-05-08T00:37:41.980Z,89.71
2023-05-08T00:40:09.922Z,89.57
2023-05-08T00:42:36.485Z,89.67
2023-05-08T00:45:03.353Z,89.38
2023-05-08T00:47:31.457Z,89.83
2023-05-08T00:50:00.618Z,89.89
2023-05-08T00:52:30.810Z,90.07
2023-05-08T00:54:57.503Z,89.93
2023-05-08T00:57:24.484Z,90.29
2023-05-08T00:59:52.639Z,90.24
2023-05-08T01:02:20.887Z,90.07
2023-05-08T01:04:48.317Z,90.05
2023-05-08T01:07:14.731Z,89.96
2023-05-08T01:09:41.221Z,90.00
2023-05-08T01:12:10.712Z,89.30
2023-05-08T01:14:54.966Z,89.43
2023-05-08T01:17:36.760Z,89.38
2023-05-08T01:20:17.636Z,89.62
2023-05-08T01:23:16.385Z,89.37
2023-05-08T01:26:09.331Z,89.88
2023-05-08T01:28:56.465Z,89.60
2023-05-08T01:31:31.938Z,89.79
2023-05-08T01:34:04.313Z,89.97
2023-05-08T01:36:50.225Z,90.04
2023-05-08T01:39:26.855Z,90.09
2023-05-08T01:42:05.618Z,90.20
2023-05-08T01:44:37.322Z,89.84
2023-05-08T01:47:10.745Z,89.93
2023-05-08T01:49:44.722Z,90.00
2023-05-08T01:52:20.860Z,90.00
2023-05-08T01:54:57.463Z,89.93
2023-05-08T01:57:26.671Z,90.22
2023-05-08T01:59:56.037Z,90.02
2023-05-08T02:02:23.026Z,90.08
2023-05-08T02:04:50.716Z,90.39
2023-05-08T02:07:17.422Z,90.32
2023-05-08T02:09:44.672Z,90.00
2023-05-08T02:12:12.859Z,90.39
2023-05-08T02:14:42.098Z,90.34
2023-05-08T02:17:10.853Z,90.69
2023-05-08T02:19:39.889Z,91.01
2023-05-08T02:22:08.466Z,90.59
2023-05-08T02:24:36.555Z,90.29
2023-05-08T02:27:03.796Z,90.29
2023-05-08T02:29:30.883Z,90.59
2023-05-08T02:31:59.869Z,90.52
2023-05-08T02:34:27.513Z,90.41
2023-05-08T02:36:54.581Z,90.34
2023-05-08T02:39:25.209Z,90.22
2023-05-08T02:41:52.093Z,90.46
2023-05-08T02:44:18.945Z,90.39
2023-05-08T02:46:54.338Z,90.50
2023-05-08T02:49:39.340Z,90.04
2023-05-08T02:52:32.813Z,90.03
2023-05-08T02:55:04.609Z,90.29
2023-05-08T02:57:55.884Z,89.94
2023-05-08T03:00:28.974Z,90.31
2023-05-08T03:03:09.109Z,90.14
2023-05-08T03:05:38.426Z,89.77
2023-05-08T03:08:14.752Z,89.92
2023-05-08T03:10:45.077Z,89.96
2023-05-08T03:13:12.192Z,89.98
2023-05-08T03:15:43.177Z,89.59
2023-05-08T03:18:14.800Z,89.89
2023-05-08T03:20:46.528Z,89.72
2023-05-08T03:23:15.324Z,89.73
2023-05-08T03:25:43.457Z,89.89
2023-05-08T03:28:10.654Z,90.34
2023-05-08T03:30:39.969Z,90.17
2023-05-08T03:33:07.772Z,90.02
2023-05-08T03:35:38.698Z,90.23
2023-05-08T03:38:05.879Z,89.98
2023-05-08T03:40:38.683Z,90.26
2023-05-08T03:43:08.928Z,90.25
2023-05-08T03:45:41.901Z,89.90
2023-05-08T03:48:10.156Z,90.05
2023-05-08T03:50:37.931Z,90.31
2023-05-08T03:53:04.487Z,90.08
2023-05-08T03:55:32.008Z,90.33
2023-05-08T03:58:17.454Z,90.43
2023-05-08T04:00:58.643Z,90.51
2023-05-08T04:03:31.813Z,90.54
2023-05-08T04:06:00.789Z,90.14
2023-05-08T04:08:34.426Z,90.26
2023-05-08T04:11:25.291Z,90.32
2023-05-08T04:13:57.414Z,90.14
2023-05-08T04:16:27.428Z,90.20
2023-05-08T04:19:00.637Z,90.10
2023-05-08T04:21:29.629Z,89.87
2023-05-08T04:23:57.650Z,90.17
2023-05-08T04:26:25.010Z,90.13
2023-05-08T04:28:51.948Z,90.56
2023-05-08T04:31:19.515Z,90.50
2023-05-08T04:33:45.908Z,90.39
2023-05-08T04:36:13.599Z,90.66
2023-05-08T04:38:40.651Z,90.29
2023-05-08T04:41:07.887Z,90.48
2023-05-08T04:43:35.505Z,90.51
2023-05-08T04:46:02.044Z,90.79
2023-05-08T04:48:29.571Z,90.62
2023-05-08T04:50:55.903Z,90.37
2023-05-08T04:53:22.216Z,90.36
2023-05-08T04:55:48.575Z,90.47
2023-05-08T04:58:14.935Z,90.34
2023-05-08T05:00:41.247Z,90.31
2023-05-08T05:03:07.685Z,90.63
2023-05-08T05:05:36.438Z,90.64
2023-05-08T05:08:04.744Z,90.70
2023-05-08T05:10:31.073Z,90.64
2023-05-08T05:12:57.435Z,90.76
2023-05-08T05:15:23.856Z,91.26
2023-05-08T05:17:50.453Z,91.08
2023-05-08T05:20:16.886Z,91.17
2023-05-08T05:22:43.209Z,90.89
2023-05-08T05:25:09.968Z,91.26
2023-05-08T05:27:36.837Z,91.35
2023-05-08T05:30:03.787Z,91.16
2023-05-08T05:32:30.472Z,91.19
2023-05-08T05:34:56.942Z,91.64
2023-05-08T05:37:24.176Z,91.20
2023-05-08T05:39:50.557Z,91.74
2023-05-08T05:42:16.873Z,91.57
2023-05-08T05:44:43.171Z,91.75
2023-05-08T05:47:12.575Z,91.57
2023-05-08T05:49:39.636Z,91.52
2023-05-08T05:52:06.672Z,91.60
2023-05-08T05:54:33.068Z,91.42
2023-05-08T05:56:59.642Z,91.48
2023-05-08T05:59:26.334Z,90.82
2023-05-08T06:01:52.753Z,90.36
2023-05-08T06:04:19.382Z,89.75
2023-05-08T06:06:45.838Z,89.52
2023-05-08T06:09:12.224Z,88.91
2023-05-08T06:11:38.674Z,88.17
2023-05-08T06:14:05.154Z,87.37
2023-05-08T06:16:32.038Z,86.94
2023-05-08T06:18:58.476Z,86.76
2023-05-08T06:21:24.768Z,86.59
2023-05-08T06:23:51.201Z,87.10
2023-05-08T06:26:18.781Z,86.77
2023-05-08T06:28:47.164Z,86.26
2023-05-08T06:31:13.553Z,85.31
2023-05-08T06:33:39.928Z,85.06
2023-05-08T06:36:06.933Z,84.63
2023-05-08T06:38:33.320Z,84.25
2023-05-08T06:40:59.738Z,83.24
2023-05-08T06:43:26.132Z,82.27
2023-05-08T06:45:53.074Z,81.76
2023-05-08T06:48:19.502Z,75.19
2023-05-08T06:50:47.109Z,72.67
2023-05-08T06:53:13.626Z,73.03
2023-05-08T06:55:43.560Z,73.03
2023-05-08T06:58:10.162Z,71.23
2023-05-08T07:00:36.488Z,69.30
2023-05-08T07:03:02.878Z,69.90
2023-05-08T07:05:29.278Z,71.30
2023-05-08T07:07:55.802Z,71.54
2023-05-08T07:10:23.071Z,71.91
2023-05-08T07:12:50.049Z,73.38
2023-05-08T07:15:25.659Z,73.84
2023-05-08T07:17:53.477Z,75.25
2023-05-08T07:20:20.257Z,76.30
2023-05-08T07:22:46.628Z,76.79
2023-05-08T07:25:13.260Z,77.75
2023-05-08T07:27:39.896Z,77.94
2023-05-08T07:30:06.916Z,78.82
2023-05-08T07:32:33.400Z,79.28
2023-05-08T07:34:59.898Z,80.35
2023-05-08T07:37:26.266Z,80.46
2023-05-08T07:39:52.830Z,80.46
2023-05-08T07:42:19.237Z,81.00
2023-05-08T07:44:54.530Z,81.05
2023-05-08T07:47:21.994Z,80.73
2023-05-08T07:49:48.344Z,81.12
2023-05-08T07:52:14.690Z,81.47
2023-05-08T07:54:41.050Z,81.70
2023-05-08T07:57:07.416Z,81.86
2023-05-08T07:59:33.770Z,82.02
2023-05-08T08:02:00.347Z,81.96
2023-05-08T08:04:27.737Z,81.86
2023-05-08T08:06:55.132Z,82.13
2023-05-08T08:09:21.538Z,82.40
2023-05-08T08:11:47.861Z,82.51
2023-05-08T08:14:14.397Z,82.27
2023-05-08T08:16:40.806Z,83.01
2023-05-08T08:19:07.204Z,83.43
2023-05-08T08:21:33.925Z,83.48
2023-05-08T08:24:00.373Z,82.61
2023-05-08T08:26:26.785Z,82.05
2023-05-08T08:28:53.188Z,82.14
2023-05-08T08:31:20.052Z,82.04
2023-05-08T08:33:46.630Z,82.05
2023-05-08T08:36:14.228Z,82.87
2023-05-08T08:38:40.650Z,81.88
2023-05-08T08:41:07.013Z,81.18
2023-05-08T08:43:34.750Z,81.87
2023-05-08T08:46:13.067Z,82.02
2023-05-08T08:48:46.417Z,80.95
2023-05-08T08:51:23.527Z,81.18
2023-05-08T08:54:03.897Z,80.90
2023-05-08T08:56:31.890Z,79.59
2023-05-08T08:58:59.988Z,78.73
2023-05-08T09:01:29.240Z,79.64
2023-05-08T09:04:00.067Z,78.11
2023-05-08T09:06:27.639Z,80.10
2023-05-08T09:08:56.477Z,77.95
2023-05-08T09:11:23.057Z,78.33
2023-05-08T09:13:49.633Z,78.26
2023-05-08T09:16:16.325Z,78.71
2023-05-08T09:18:42.770Z,78.90
2023-05-08T09:21:09.391Z,76.04
2023-05-08T09:23:36.699Z,77.54
2023-05-08T09:26:03.115Z,75.95
2023-05-08T09:28:29.458Z,75.62
2023-05-08T09:30:58.101Z,75.62
2023-05-08T09:33:26.752Z,76.30
2023-05-08T09:35:54.589Z,75.13
2023-05-08T09:38:41.963Z,75.72
2023-05-08T09:41:17.727Z,74.87
2023-05-08T09:43:45.290Z,75.34
2023-05-08T09:46:22.387Z,75.43
2023-05-08T09:48:50.100Z,75.71
2023-05-08T09:51:16.662Z,75.60
2023-05-08T09:53:43.629Z,75.35
2023-05-08T09:56:10.135Z,76.00
2023-05-08T09:58:44.640Z,74.99
2023-05-08T10:01:32.967Z,75.36
2023-05-08T10:03:59.789Z,75.09
2023-05-08T10:06:29.146Z,75.72
2023-05-08T10:09:12.477Z,76.15
2023-05-08T10:11:51.823Z,75.60
2023-05-08T10:14:19.662Z,75.35
2023-05-08T10:16:49.111Z,76.40
2023-05-08T10:19:18.356Z,75.76
2023-05-08T10:21:50.888Z,77.00
2023-05-08T10:24:21.720Z,76.17
2023-05-08T10:27:17.694Z,76.70
2023-05-08T10:29:52.515Z,75.02
2023-05-08T10:32:23.677Z,76.48
2023-05-08T10:34:53.782Z,77.95
2023-05-08T10:37:21.165Z,76.14
2023-05-08T10:39:48.103Z,76.02
2023-05-08T10:42:15.225Z,74.49
2023-05-08T10:44:41.657Z,73.81
2023-05-08T10:47:27.799Z,75.23
2023-05-08T10:50:06.069Z,73.80
2023-05-08T10:52:57.627Z,74.41
2023-05-08T10:55:32.253Z,73.76
2023-05-08T10:58:23.261Z,73.86
2023-05-08T11:00:49.549Z,73.35
2023-05-08T11:03:30.671Z,71.98
2023-05-08T11:06:00.676Z,72.18
2023-05-08T11:08:28.601Z,74.97
2023-05-08T11:11:01.671Z,75.28
2023-05-08T11:13:43.080Z,75.18
2023-05-08T11:16:12.381Z,74.29
2023-05-08T11:19:17.220Z,75.37
2023-05-08T11:22:21.630Z,74.57
2023-05-08T11:24:48.237Z,74.69
2023-05-08T11:27:15.709Z,74.97
2023-05-08T11:29:42.599Z,75.59
2023-05-08T11:32:08.986Z,74.44
2023-05-08T11:34:44.702Z,75.16
2023-05-08T11:37:18.244Z,74.29
2023-05-08T11:39:44.760Z,74.19
2023-05-08T11:42:29.457Z,73.51
2023-05-08T11:45:12.923Z,73.28
2023-05-08T11:47:42.279Z,72.30
2023-05-08T11:50:10.705Z,70.91
2023-05-08T11:52:38.891Z,72.45
2023-05-08T11:55:07.768Z,72.47
2023-05-08T11:57:34.676Z,72.28
2023-05-08T12:00:11.792Z,72.73
2023-05-08T12:02:39.595Z,71.62
2023-05-08T12:05:10.335Z,71.99
2023-05-08T12:07:44.799Z,72.11
2023-05-08T12:10:11.340Z,72.54
2023-05-08T12:12:41.538Z,73.20
2023-05-08T12:15:13.593Z,71.27
2023-05-08T12:17:40.806Z,72.39
2023-05-08T12:20:14.709Z,70.59
2023-05-08T12:22:42.142Z,69.06
2023-05-08T12:25:11.761Z,69.19
2023-05-08T12:27:38.808Z,69.50
2023-05-08T12:30:09.522Z,68.50
2023-05-08T12:32:40.988Z,70.12
2023-05-08T12:35:12.070Z,70.19
2023-05-08T12:37:39.112Z,69.41
2023-05-08T12:40:08.225Z,69.35
2023-05-08T12:42:49.230Z,69.36
2023-05-08T12:45:26.791Z,67.10
2023-05-08T12:47:57.987Z,67.40
2023-05-08T12:50:27.342Z,66.34
2023-05-08T12:52:54.205Z,67.57
2023-05-08T12:55:28.852Z,66.40
2023-05-08T12:58:09.334Z,64.97
2023-05-08T13:00:42.641Z,64.66
2023-05-08T13:03:10.595Z,66.39
2023-05-08T13:05:41.284Z,66.40
2023-05-08T13:08:12.124Z,66.27
2023-05-08T13:10:55.539Z,65.40
2023-05-08T13:13:27.281Z,65.66
2023-05-08T13:15:55.246Z,65.64
2023-05-08T13:18:24.744Z,65.34
2023-05-08T13:20:51.103Z,68.05
2023-05-08T13:23:17.483Z,67.40
2023-05-08T13:25:44.044Z,69.12
2023-05-08T13:28:10.842Z,66.89
2023-05-08T13:30:38.028Z,67.15
2023-05-08T13:33:05.261Z,68.34
2023-05-08T13:35:32.457Z,66.99
2023-05-08T13:37:59.180Z,67.37
2023-05-08T13:40:26.199Z,68.72
2023-05-08T13:42:52.883Z,66.74
2023-05-08T13:45:20.075Z,67.64
2023-05-08T13:47:47.684Z,68.21
2023-05-08T13:50:15.858Z,67.00
2023-05-08T13:52:43.055Z,67.18
2023-05-08T13:55:13.954Z,66.80
2023-05-08T13:57:41.191Z,67.27
2023-05-08T14:00:09.256Z,69.16
2023-05-08T14:02:37.194Z,68.24
2023-05-08T14:05:04.454Z,68.46
2023-05-08T14:07:30.976Z,66.76
2023-05-08T14:09:57.513Z,68.87
2023-05-08T14:12:23.858Z,68.07
2023-05-08T14:14:50.389Z,68.55
2023-05-08T14:17:16.744Z,67.94
2023-05-08T14:19:43.314Z,68.45
2023-05-08T14:22:09.656Z,67.55
2023-05-08T14:24:36.038Z,68.45
2023-05-08T14:27:05.801Z,68.51
2023-05-08T14:29:33.497Z,69.49
2023-05-08T14:31:59.966Z,69.60
2023-05-08T14:34:26.647Z,69.19
2023-05-08T14:36:54.165Z,67.78
2023-05-08T14:39:20.600Z,67.56
2023-05-08T14:41:59.765Z,67.78
2023-05-08T14:44:33.263Z,67.84
2023-05-08T14:46:59.794Z,68.86
2023-05-08T14:49:36.593Z,67.51
2023-05-08T14:52:05.769Z,66.75
2023-05-08T14:54:32.738Z,66.52
2023-05-08T14:56:59.298Z,66.78
2023-05-08T14:59:25.926Z,68.63
2023-05-08T15:01:52.308Z,67.54
2023-05-08T15:04:18.814Z,68.52
2023-05-08T15:06:45.641Z,68.17
2023-05-08T15:09:12.610Z,69.11
2023-05-08T15:11:39.612Z,68.70
2023-05-08T15:14:06.165Z,68.79
2023-05-08T15:16:32.639Z,68.62
2023-05-08T15:18:59.987Z,68.68
2023-05-08T15:21:27.281Z,68.23
2023-05-08T15:23:54.823Z,70.04
2023-05-08T15:26:21.821Z,70.41
2023-05-08T15:28:48.477Z,71.90
2023-05-08T15:31:15.296Z,70.79
2023-05-08T15:33:44.608Z,70.36
2023-05-08T15:36:12.501Z,70.60
2023-05-08T15:38:39.432Z,69.63
2023-05-08T15:41:05.933Z,68.66
2023-05-08T15:43:32.326Z,70.71
2023-05-08T15:45:58.667Z,69.02
2023-05-08T15:48:25.150Z,68.81
2023-05-08T15:50:51.486Z,69.65
2023-05-08T15:53:17.803Z,67.75
2023-05-08T15:55:44.174Z,70.46
2023-05-08T15:58:10.507Z,69.57
2023-05-08T16:00:44.141Z,70.47
2023-05-08T16:03:12.025Z,70.66
2023-05-08T16:05:39.389Z,69.94
2023-05-08T16:08:06.018Z,70.68
2023-05-08T16:10:32.372Z,70.94
2023-05-08T16:12:58.783Z,71.16
2023-05-08T16:15:25.359Z,70.25
2023-05-08T16:17:51.723Z,70.05
2023-05-08T16:20:18.094Z,71.91
2023-05-08T16:22:44.505Z,72.97
2023-05-08T16:25:11.013Z,73.14
2023-05-08T16:27:37.823Z,72.48
2023-05-08T16:30:04.657Z,71.58
2023-05-08T16:32:31.535Z,71.50
2023-05-08T16:34:57.982Z,72.56
2023-05-08T16:37:24.369Z,72.19
2023-05-08T16:39:50.732Z,72.84
2023-05-08T16:42:18.733Z,72.32
2023-05-08T16:44:45.306Z,72.61
2023-05-08T16:47:11.811Z,72.50
2023-05-08T16:49:38.311Z,71.70
2023-05-08T16:52:04.667Z,72.34
2023-05-08T16:54:31.040Z,73.34
2023-05-08T16:56:57.824Z,73.85
2023-05-08T16:59:24.173Z,73.27
2023-05-08T17:01:50.589Z,70.96
2023-05-08T17:04:16.909Z,71.14
2023-05-08T17:06:43.301Z,71.64
2023-05-08T17:09:09.640Z,72.60
2023-05-08T17:11:35.962Z,71.21
2023-05-08T17:14:02.397Z,72.25
2023-05-08T17:16:29.574Z,71.24
2023-05-08T17:18:55.959Z,72.17
2023-05-08T17:21:22.312Z,72.72
2023-05-08T17:23:48.868Z,71.92
2023-05-08T17:26:15.189Z,72.48
2023-05-08T17:28:41.502Z,73.60
2023-05-08T17:31:07.994Z,73.73
2023-05-08T17:33:34.308Z,71.76
2023-05-08T17:36:01.541Z,73.24
2023-05-08T17:38:28.097Z,74.13
2023-05-08T17:40:56.213Z,73.10
2023-05-08T17:43:22.545Z,73.13
2023-05-08T17:45:48.967Z,73.45
2023-05-08T17:48:15.570Z,73.84
2023-05-08T17:50:43.419Z,73.57
2023-05-08T17:53:09.885Z,74.58
2023-05-08T17:55:36.396Z,74.77
2023-05-08T17:58:02.776Z,75.62
2023-05-08T18:00:29.190Z,75.66
2023-05-08T18:02:55.636Z,75.48
2023-05-08T18:05:22.100Z,75.54
2023-05-08T18:07:48.455Z,75.66
2023-05-08T18:10:15.031Z,75.97
2023-05-08T18:12:41.658Z,77.47
2023-05-08T18:15:08.436Z,77.47
2023-05-08T18:17:34.844Z,77.97
2023-05-08T18:20:04.025Z,77.44
2023-05-08T18:22:31.070Z,77.43
2023-05-08T18:24:57.594Z,77.08
2023-05-08T18:27:24.418Z,77.81
2023-05-08T18:29:50.795Z,77.49
2023-05-08T18:32:17.137Z,77.90
2023-05-08T18:34:43.553Z,77.91
2023-05-08T18:37:10.149Z,78.12
2023-05-08T18:39:36.467Z,78.58
2023-05-08T18:42:02.995Z,79.04
2023-05-08T18:44:29.362Z,78.74
2023-05-08T18:46:56.402Z,79.12
2023-05-08T18:49:22.752Z,79.29
2023-05-08T18:51:49.258Z,79.30
2023-05-08T18:54:15.587Z,79.89
2023-05-08T18:56:41.974Z,79.75
2023-05-08T18:59:08.639Z,79.89
2023-05-08T19:01:35.104Z,80.41
2023-05-08T19:04:02.766Z,80.53
2023-05-08T19:06:29.160Z,80.04
2023-05-08T19:08:55.641Z,80.22
2023-05-08T19:11:22.458Z,80.12
2023-05-08T19:13:50.272Z,79.75
2023-05-08T19:16:16.604Z,79.79
2023-05-08T19:18:42.958Z,79.85
2023-05-08T19:21:09.474Z,80.04
2023-05-08T19:23:35.852Z,80.16
2023-05-08T19:26:02.294Z,80.29
2023-05-08T19:28:28.687Z,80.80
2023-05-08T19:30:55.214Z,80.84
2023-05-08T19:33:21.600Z,80.88
2023-05-08T19:35:48.512Z,81.52
2023-05-08T19:38:15.461Z,81.78
2023-05-08T19:40:55.799Z,82.28
2023-05-08T19:43:23.437Z,82.41
2023-05-08T19:45:49.796Z,82.34
2023-05-08T19:48:18.067Z,82.04
2023-05-08T19:50:44.861Z,82.44
2023-05-08T19:53:11.189Z,82.32
2023-05-08T19:55:37.517Z,82.17
2023-05-08T19:58:03.882Z,82.50
2023-05-08T20:00:30.356Z,82.31
2023-05-08T20:02:56.851Z,82.46
2023-05-08T20:05:23.546Z,82.25
2023-05-08T20:07:50.126Z,81.97
2023-05-08T20:10:16.668Z,82.33
2023-05-08T20:12:43.379Z,82.71
2023-05-08T20:15:10.420Z,82.02
2023-05-08T20:17:36.803Z,82.75
2023-05-08T20:20:03.392Z,82.89
2023-05-08T20:22:30.234Z,83.15
2023-05-08T20:24:56.638Z,83.33
2023-05-08T20:27:23.044Z,83.39
2023-05-08T20:29:49.358Z,83.80
2023-05-08T20:32:18.891Z,83.42
2023-05-08T20:34:45.385Z,83.54
2023-05-08T20:37:11.798Z,84.17
2023-05-08T20:39:38.121Z,84.40
2023-05-08T20:42:04.568Z,84.79
2023-05-08T20:44:30.867Z,84.73
2023-05-08T20:46:57.459Z,84.68
2023-05-08T20:49:23.837Z,84.97
2023-05-08T20:51:50.282Z,85.09
2023-05-08T20:54:16.620Z,85.17
2023-05-08T20:56:43.099Z,85.24
2023-05-08T20:59:09.513Z,84.97
2023-05-08T21:01:35.880Z,85.47
2023-05-08T21:04:05.268Z,85.17
2023-05-08T21:06:32.073Z,85.23
2023-05-08T21:08:58.386Z,85.21
2023-05-08T21:11:24.884Z,85.44
2023-05-08T21:13:51.210Z,85.30
2023-05-08T21:16:17.573Z,85.15
2023-05-08T21:18:44.097Z,85.41
2023-05-08T21:21:17.905Z,85.56
2023-05-08T21:23:44.259Z,85.73
2023-05-08T21:26:10.721Z,85.70
2023-05-08T21:28:37.088Z,85.94
2023-05-08T21:31:03.715Z,86.38
2023-05-08T21:33:30.251Z,86.17
2023-05-08T21:35:56.589Z,86.20
2023-05-08T21:38:22.990Z,86.18
2023-05-08T21:40:49.310Z,86.37
2023-05-08T21:43:15.726Z,86.06
2023-05-08T21:45:42.310Z,86.03
2023-05-08T21:48:08.688Z,85.98
2023-05-08T21:50:35.009Z,86.38
2023-05-08T21:53:01.623Z,86.78
2023-05-08T21:55:28.673Z,86.91
2023-05-08T21:57:56.213Z,86.93
2023-05-08T22:00:22.554Z,87.29
2023-05-08T22:02:48.977Z,87.10
2023-05-08T22:05:15.705Z,87.16
2023-05-08T22:07:42.260Z,87.34
2023-05-08T22:10:10.255Z,87.51
2023-05-08T22:12:36.771Z,87.59
2023-05-08T22:15:09.340Z,87.53
2023-05-08T22:17:39.451Z,87.83
2023-05-08T22:20:07.713Z,87.81
2023-05-08T22:22:34.177Z,87.60
2023-05-08T22:25:00.602Z,87.46
2023-05-08T22:27:26.945Z,87.43
2023-05-08T22:29:53.405Z,87.33
2023-05-08T22:32:20.294Z,87.32
2023-05-08T22:34:49.673Z,87.68
2023-05-08T22:37:17.388Z,87.78
2023-05-08T22:39:43.697Z,87.67
2023-05-08T22:42:11.454Z,87.88
2023-05-08T22:44:37.800Z,88.11
2023-05-08T22:47:04.374Z,87.81
2023-05-08T22:49:31.087Z,88.03
2023-05-08T22:51:57.519Z,88.27
2023-05-08T22:54:23.873Z,88.33
2023-05-08T22:56:50.391Z,88.32
2023-05-08T22:59:16.763Z,88.92
2023-05-08T23:01:43.562Z,88.63
2023-05-08T23:04:10.044Z,88.76
2023-05-08T23:06:36.739Z,88.60
2023-05-08T23:09:04.231Z,88.56
2023-05-08T23:11:30.736Z,88.13
2023-05-08T23:13:57.048Z,88.55
2023-05-08T23:16:23.746Z,88.61
2023-05-08T23:18:50.127Z,88.50
2023-05-08T23:21:16.691Z,88.59
2023-05-08T23:23:43.009Z,88.52
2023-05-08T23:26:09.451Z,88.13
2023-05-08T23:28:36.008Z,88.34
2023-05-08T23:31:03.211Z,88.22
2023-05-08T23:33:30.576Z,88.91
2023-05-08T23:35:58.319Z,88.79
2023-05-08T23:38:25.317Z,88.80
2023-05-08T23:40:51.905Z,88.69
2023-05-08T23:43:19.050Z,89.35
2023-05-08T23:45:45.563Z,89.01
2023-05-08T23:48:11.897Z,89.25
2023-05-08T23:50:38.283Z,89.30
2023-05-08T23:53:04.704Z,89.11
2023-05-08T23:55:31.122Z,89.42
2023-05-08T23:57:57.530Z,89.53
